createdAt,value
2022-12-11T00:05:46.591Z,1.89
2022-12-11T00:27:32.627Z,1.76
2022-12-11T00:49:19.559Z,1.66
2022-12-11T01:11:08.820Z,1.63
2022-12-11T01:32:54.840Z,1.66
2022-12-11T01:54:41.087Z,1.60
2022-12-11T02:16:32.519Z,1.40
2022-12-11T02:38:25.592Z,1.26
2022-12-11T03:00:13.545Z,1.16
2022-12-11T03:22:09.635Z,1.00
2022-12-11T03:43:58.477Z,1.04
2022-12-11T04:05:45.916Z,0.86
2022-12-11T04:27:50.588Z,0.63
2022-12-11T04:49:36.324Z,0.58
2022-12-11T05:11:22.292Z,0.61
2022-12-11T05:33:06.892Z,0.62
2022-12-11T05:54:53.035Z,0.60
2022-12-11T06:16:38.885Z,0.58
2022-12-11T06:38:23.080Z,0.52
2022-12-11T07:00:11.115Z,0.48
2022-12-11T07:21:56.817Z,0.49
2022-12-11T07:43:43.094Z,0.57
2022-12-11T08:05:29.075Z,0.63
2022-12-11T08:27:14.886Z,0.54
2022-12-11T08:48:59.599Z,0.45
2022-12-11T09:10:45.380Z,0.43
2022-12-11T09:32:32.468Z,0.43
2022-12-11T09:54:19.261Z,0.34
2022-12-11T10:16:20.976Z,0.43
2022-12-11T10:38:16.916Z,0.51
2022-12-11T11:00:05.195Z,0.51
2022-12-11T11:21:55.313Z,0.62
2022-12-11T11:43:47.644Z,0.36
2022-12-11T12:05:41.915Z,0.46
2022-12-11T12:27:52.129Z,0.28
2022-12-11T12:49:42.306Z,0.13
2022-12-11T13:11:36.497Z,0.11
2022-12-11T13:33:24.755Z,0.00
2022-12-11T13:55:24.345Z,-0.02
2022-12-11T14:17:17.583Z,-0.18
2022-12-11T14:39:12.102Z,-0.17
2022-12-11T15:01:03.758Z,-0.09
2022-12-11T15:22:50.027Z,-0.25
2022-12-11T15:44:36.620Z,-0.40
2022-12-11T16:06:22.749Z,-0.40
2022-12-11T16:28:09.682Z,-0.56
2022-12-11T16:49:56.545Z,-0.54
2022-12-11T17:11:43.696Z,-0.34
2022-12-11T17:33:29.529Z,-0.41
2022-12-11T17:55:17.519Z,-0.40
2022-12-11T18:17:03.635Z,-0.31
2022-12-11T18:38:53.331Z,-0.50
2022-12-11T19:00:40.576Z,-0.49
2022-12-11T19:22:26.455Z,-0.49
2022-12-11T19:44:13.281Z,-0.58
2022-12-11T20:06:09.502Z,-0.65
2022-12-11T20:27:56.614Z,-0.71
2022-12-11T20:49:42.736Z,-0.62
2022-12-11T21:11:36.576Z,-0.67
2022-12-11T21:33:22.664Z,-0.55
2022-12-11T21:55:09.588Z,-0.64
2022-12-11T22:16:56.318Z,-0.53
2022-12-11T22:38:42.156Z,-0.70
2022-12-11T23:00:29.680Z,-0.60
2022-12-11T23:22:17.149Z,-0.51
2022-12-11T23:44:03.380Z,-0.55
